Elk Horn, Kentucky
Current Conditions -  °F | °C
As of 1:15 PM on Tuesday 21 Oct 2014 (Local Time) from KDVK Reporting Station
Overcast Overcast  
Wind Chill: 55°   Ceiling: 3300
Heat Index: 55°   Visibility: 10mi
Dew Point: 43°   Wind: 8mph
Humidity: 63%   Direction: 350°N
Pressure: 30.07"   Gusts: 16mph
Location:  37.32°N, 85.29°W
Report Text: KDVK 211715Z AUTO 35007G14KT 10SM BKN033 BKN039 OVC055 13/06 A3007 RMK AO2
Loading
Personal Weather Stations






























Interactive Weather Map
Tropical Storm Tracking
New forecast layout! Learn more

10-Day Weather Forecast

Advertisements
Track Severe Weather on mobile